Rio Lucio, New Mexico
Current Conditions -  °F | °C
As of 1:55 PM on Tuesday 25 Nov 2014 (Local Time) from KSKX Reporting Station
Clear Clear  
Wind Chill: 26°   Ceiling: Unl
Heat Index: 34°   Visibility: 10mi
Dew Point: 12°   Wind: 10mph
Humidity: 41%   Direction: 210°SSW
Pressure: 30.23"   Gusts: NA
Location:  36.1709°N, 105.75°W
Report Text: KSKX 252055Z AUTO 21009KT 10SM CLR 01/M11 A3023 RMK AO1 57027
Loading
Personal Weather Stations






























Interactive Weather Map New forecast layout! Learn more

10-Day Weather Forecast

Advertisements
Track Severe Weather on mobile